createdAt,value
2023-05-30T00:03:40.000Z,7.75
2023-05-30T00:07:52.541Z,6.30
2023-05-30T00:12:05.731Z,9.93
2023-05-30T00:16:21.041Z,5.90
2023-05-30T00:20:35.167Z,7.13
2023-05-30T00:24:47.666Z,3.97
2023-05-30T00:29:00.206Z,10.77
2023-05-30T00:33:14.445Z,4.57
2023-05-30T00:37:27.730Z,3.78
2023-05-30T00:41:40.163Z,5.57
2023-05-30T00:45:55.309Z,5.47
2023-05-30T00:50:09.611Z,7.00
2023-05-30T00:54:23.705Z,5.40
2023-05-30T00:58:37.606Z,9.10
2023-05-30T01:02:51.621Z,5.93
2023-05-30T01:07:06.090Z,6.93
2023-05-30T01:11:36.496Z,4.72
2023-05-30T01:15:56.300Z,4.85
2023-05-30T01:20:21.889Z,7.07
2023-05-30T01:24:46.518Z,7.28
2023-05-30T01:29:04.227Z,5.68
2023-05-30T01:33:18.862Z,8.35
2023-05-30T01:37:33.586Z,5.43
2023-05-30T01:42:03.217Z,4.47
2023-05-30T01:46:38.509Z,6.30
2023-05-30T01:50:52.334Z,7.60
2023-05-30T01:55:07.501Z,5.85
2023-05-30T01:59:21.884Z,5.68
2023-05-30T02:03:34.497Z,7.28
2023-05-30T02:07:46.977Z,6.45
2023-05-30T02:12:00.419Z,5.00
2023-05-30T02:16:14.751Z,7.80
2023-05-30T02:20:27.547Z,3.90
2023-05-30T02:24:40.115Z,6.55
2023-05-30T02:28:52.724Z,5.15
2023-05-30T02:33:05.466Z,3.75
2023-05-30T02:37:17.958Z,4.65
2023-05-30T02:41:30.391Z,7.07
2023-05-30T02:45:42.900Z,6.57
2023-05-30T02:49:55.378Z,5.18
2023-05-30T02:54:08.152Z,6.13
2023-05-30T02:58:49.589Z,7.60
2023-05-30T03:07:36.937Z,4.97
2023-05-30T03:11:50.563Z,6.88
2023-05-30T03:16:03.203Z,10.65
2023-05-30T03:20:17.411Z,5.18
2023-05-30T03:24:31.074Z,6.20
2023-05-30T03:28:43.974Z,10.95
2023-05-30T03:33:08.211Z,6.05
2023-05-30T03:37:21.736Z,3.75
2023-05-30T03:41:34.300Z,3.72
2023-05-30T03:45:46.959Z,4.72
2023-05-30T03:50:01.187Z,5.22
2023-05-30T03:54:13.724Z,4.93
2023-05-30T03:58:26.300Z,6.45
2023-05-30T04:02:42.359Z,8.68
2023-05-30T04:06:55.165Z,4.90
2023-05-30T04:11:09.568Z,4.72
2023-05-30T04:15:22.005Z,8.40
2023-05-30T04:19:35.643Z,7.55
2023-05-30T04:23:48.630Z,4.07
2023-05-30T04:28:01.248Z,7.20
2023-05-30T04:32:14.224Z,6.78
2023-05-30T04:36:28.695Z,6.30
2023-05-30T04:40:41.083Z,6.60
2023-05-30T04:44:54.881Z,6.57
2023-05-30T04:49:07.741Z,8.40
2023-05-30T04:53:22.759Z,6.80
2023-05-30T04:57:38.488Z,11.27
2023-05-30T05:01:51.230Z,8.63
2023-05-30T05:06:03.907Z,8.70
2023-05-30T05:10:16.455Z,6.70
2023-05-30T05:14:29.066Z,8.63
2023-05-30T05:18:41.611Z,8.50
2023-05-30T05:22:55.751Z,8.60
2023-05-30T05:27:08.396Z,8.18
2023-05-30T05:31:21.073Z,7.30
2023-05-30T05:35:33.634Z,5.85
2023-05-30T05:39:46.152Z,7.97
2023-05-30T05:43:58.663Z,6.38
2023-05-30T05:48:11.327Z,5.53
2023-05-30T05:52:23.859Z,7.05
2023-05-30T05:56:37.529Z,7.65
2023-05-30T06:00:50.002Z,3.80
2023-05-30T06:05:02.667Z,6.28
2023-05-30T06:09:15.452Z,6.30
2023-05-30T06:13:28.031Z,6.40
2023-05-30T06:17:40.598Z,13.05
2023-05-30T06:21:53.309Z,5.20
2023-05-30T06:26:06.478Z,7.00
2023-05-30T06:30:20.718Z,12.65
2023-05-30T06:34:33.261Z,8.32
2023-05-30T06:38:46.430Z,7.50
2023-05-30T06:42:59.684Z,6.75
2023-05-30T06:47:12.340Z,6.00
2023-05-30T06:51:24.970Z,9.05
2023-05-30T06:55:37.521Z,9.80
2023-05-30T06:59:49.969Z,8.85
2023-05-30T07:04:02.450Z,5.85
2023-05-30T07:08:14.868Z,4.68
2023-05-30T07:12:28.428Z,4.65
2023-05-30T07:16:40.840Z,9.45
2023-05-30T07:20:53.508Z,5.97
2023-05-30T07:25:07.822Z,7.45
2023-05-30T07:29:20.209Z,14.73
2023-05-30T07:33:32.618Z,8.45
2023-05-30T07:37:46.574Z,8.73
2023-05-30T07:41:58.933Z,11.80
2023-05-30T07:46:11.601Z,11.75
2023-05-30T07:50:24.137Z,12.70
2023-05-30T07:54:36.618Z,10.15
2023-05-30T07:58:50.163Z,8.55
2023-05-30T08:03:02.578Z,10.02
2023-05-30T08:07:15.226Z,11.85
2023-05-30T08:11:27.705Z,12.90
2023-05-30T08:15:40.519Z,9.63
2023-05-30T08:19:57.359Z,6.07
2023-05-30T08:24:09.844Z,5.50
2023-05-30T08:28:23.124Z,6.95
2023-05-30T08:32:35.941Z,10.77
2023-05-30T08:36:48.488Z,9.77
2023-05-30T08:41:01.299Z,10.32
2023-05-30T08:45:13.852Z,6.70
2023-05-30T08:49:26.780Z,7.82
2023-05-30T08:53:44.353Z,8.20
2023-05-30T08:58:05.978Z,11.18
2023-05-30T09:02:20.998Z,5.60
2023-05-30T09:06:36.813Z,10.45
2023-05-30T09:10:50.555Z,7.90
2023-05-30T09:15:03.194Z,4.85
2023-05-30T09:19:16.326Z,7.45
2023-05-30T09:23:30.541Z,6.75
2023-05-30T09:27:48.363Z,6.70
2023-05-30T09:32:01.027Z,10.68
2023-05-30T09:36:21.547Z,8.57
2023-05-30T09:40:34.005Z,5.13
2023-05-30T09:44:55.852Z,6.55
2023-05-30T09:49:13.547Z,7.72
2023-05-30T09:53:33.648Z,13.73
2023-05-30T09:57:51.300Z,6.65
2023-05-30T10:02:03.879Z,7.03
2023-05-30T10:06:17.326Z,6.30
2023-05-30T10:10:31.842Z,11.73
2023-05-30T10:14:45.189Z,5.72
2023-05-30T10:19:01.154Z,7.15
2023-05-30T10:23:15.111Z,7.88
2023-05-30T10:27:33.039Z,9.30
2023-05-30T10:31:46.342Z,6.82
2023-05-30T10:35:59.497Z,7.88
2023-05-30T10:40:33.683Z,10.38
2023-05-30T10:45:12.057Z,9.00
2023-05-30T10:49:29.992Z,9.98
2023-05-30T10:53:44.882Z,7.63
2023-05-30T10:57:57.532Z,12.18
2023-05-30T11:02:10.183Z,6.60
2023-05-30T11:06:22.650Z,6.05
2023-05-30T11:10:35.106Z,9.98
2023-05-30T11:14:56.647Z,8.65
2023-05-30T11:19:12.775Z,6.85
2023-05-30T11:23:26.156Z,7.85
2023-05-30T11:27:38.752Z,12.40
2023-05-30T11:31:54.655Z,14.40
2023-05-30T11:36:10.515Z,6.53
2023-05-30T11:40:23.595Z,7.28
2023-05-30T11:44:36.244Z,6.78
2023-05-30T11:48:48.728Z,10.90
2023-05-30T11:53:01.448Z,9.35
2023-05-30T11:57:18.444Z,8.75
2023-05-30T12:01:31.287Z,11.02
2023-05-30T12:05:45.175Z,8.52
2023-05-30T12:09:57.893Z,7.15
2023-05-30T12:14:10.467Z,9.60
2023-05-30T12:18:23.006Z,9.82
2023-05-30T12:22:36.269Z,9.05
2023-05-30T12:26:50.033Z,9.50
2023-05-30T12:31:03.406Z,10.55
2023-05-30T12:35:20.031Z,9.02
2023-05-30T12:39:34.066Z,7.22
2023-05-30T12:43:46.495Z,8.68
2023-05-30T12:47:59.118Z,7.32
2023-05-30T12:52:15.608Z,11.65
2023-05-30T12:56:29.631Z,14.05
2023-05-30T13:00:42.162Z,6.45
2023-05-30T13:04:55.609Z,7.65
2023-05-30T13:09:08.122Z,6.00
2023-05-30T13:13:20.781Z,10.85
2023-05-30T13:17:33.330Z,15.60
2023-05-30T13:21:46.065Z,8.98
2023-05-30T13:25:58.596Z,7.60
2023-05-30T13:30:13.623Z,15.23
2023-05-30T13:34:26.451Z,10.07
2023-05-30T13:38:40.747Z,12.13
2023-05-30T13:42:53.276Z,10.45
2023-05-30T13:47:08.457Z,7.40
2023-05-30T13:51:22.055Z,8.57
2023-05-30T13:55:34.711Z,12.30
2023-05-30T13:59:47.453Z,11.73
2023-05-30T14:04:01.189Z,9.93
2023-05-30T14:08:13.820Z,11.25
2023-05-30T14:12:26.615Z,12.55
2023-05-30T14:16:39.061Z,10.50
2023-05-30T14:20:52.005Z,9.57
2023-05-30T14:25:05.328Z,7.40
2023-05-30T14:29:17.837Z,13.60
2023-05-30T14:33:30.207Z,13.07
2023-05-30T14:37:42.692Z,11.05
2023-05-30T14:41:56.099Z,11.15
2023-05-30T14:46:08.787Z,8.55
2023-05-30T14:50:22.665Z,9.35
2023-05-30T14:54:35.150Z,9.80
2023-05-30T14:58:47.601Z,7.95
2023-05-30T15:03:00.607Z,10.82
2023-05-30T15:07:13.677Z,6.93
2023-05-30T15:11:27.066Z,7.40
2023-05-30T15:15:39.549Z,9.80
2023-05-30T15:19:52.120Z,8.27
2023-05-30T15:24:04.862Z,8.35
2023-05-30T15:28:17.388Z,6.38
2023-05-30T15:32:29.793Z,7.18
2023-05-30T15:36:42.545Z,7.45
2023-05-30T15:40:56.472Z,7.85
2023-05-30T15:45:09.863Z,7.72
2023-05-30T15:49:22.247Z,5.05
2023-05-30T15:53:34.679Z,11.80
2023-05-30T15:57:47.172Z,8.05
2023-05-30T16:02:01.455Z,7.90
2023-05-30T16:06:13.943Z,10.18
2023-05-30T16:10:26.466Z,7.22
2023-05-30T16:14:38.919Z,9.77
2023-05-30T16:18:51.366Z,13.45
2023-05-30T16:23:03.768Z,5.35
2023-05-30T16:27:17.332Z,6.25
2023-05-30T16:31:30.451Z,7.20
2023-05-30T16:35:43.047Z,6.55
2023-05-30T16:39:55.539Z,7.20
2023-05-30T16:44:08.405Z,7.97
2023-05-30T16:48:20.917Z,6.55
2023-05-30T16:52:33.564Z,5.75
2023-05-30T16:56:46.472Z,7.13
2023-05-30T17:00:59.194Z,8.98
2023-05-30T17:05:12.235Z,11.73
2023-05-30T17:09:24.663Z,10.10
2023-05-30T17:13:37.142Z,9.10
2023-05-30T17:17:53.416Z,13.07
2023-05-30T17:22:06.231Z,8.82
2023-05-30T17:26:18.645Z,12.15
2023-05-30T17:30:31.072Z,9.23
2023-05-30T17:34:43.519Z,9.25
2023-05-30T17:38:55.955Z,7.65
2023-05-30T17:43:08.516Z,10.48
2023-05-30T17:47:21.114Z,13.50
2023-05-30T17:51:33.932Z,7.18
2023-05-30T17:55:46.600Z,11.25
2023-05-30T17:59:59.320Z,9.18
2023-05-30T18:04:11.906Z,10.60
2023-05-30T18:08:24.433Z,10.85
2023-05-30T18:12:36.878Z,11.80
2023-05-30T18:16:50.045Z,7.07
2023-05-30T18:21:04.915Z,10.60
2023-05-30T18:25:17.535Z,15.05
2023-05-30T18:29:30.462Z,16.80
2023-05-30T18:33:42.943Z,15.57
2023-05-30T18:37:55.441Z,11.95
2023-05-30T18:42:08.584Z,19.85
2023-05-30T18:46:22.401Z,6.43
2023-05-30T18:50:34.826Z,9.32
2023-05-30T18:54:47.301Z,12.52
2023-05-30T18:59:00.382Z,7.65
2023-05-30T19:03:12.970Z,11.45
2023-05-30T19:07:26.264Z,6.60
2023-05-30T19:11:38.693Z,10.23
2023-05-30T19:15:51.927Z,11.13
2023-05-30T19:20:04.593Z,12.02
2023-05-30T19:24:17.058Z,17.05
2023-05-30T19:28:31.745Z,14.55
2023-05-30T19:32:44.188Z,14.48
2023-05-30T19:36:57.384Z,15.95
2023-05-30T19:41:09.945Z,17.88
2023-05-30T19:45:22.654Z,12.25
2023-05-30T19:49:36.277Z,14.07
2023-05-30T19:53:48.771Z,14.98
2023-05-30T19:58:01.355Z,14.57
2023-05-30T20:02:13.962Z,14.88
2023-05-30T20:06:31.122Z,18.98
2023-05-30T20:10:43.625Z,10.88
2023-05-30T20:14:56.128Z,13.98
2023-05-30T20:19:08.614Z,14.45
2023-05-30T20:23:21.311Z,17.13
2023-05-30T20:27:38.631Z,15.15
2023-05-30T20:31:51.199Z,21.98
2023-05-30T20:36:03.674Z,19.27
2023-05-30T20:40:16.178Z,18.83
2023-05-30T20:44:28.673Z,31.25
2023-05-30T20:48:41.107Z,29.77
2023-05-30T20:52:53.718Z,32.63
2023-05-30T20:57:20.983Z,24.95
2023-05-30T21:01:37.295Z,26.88
2023-05-30T21:05:53.313Z,32.97
2023-05-30T21:10:07.041Z,21.95
2023-05-30T21:14:19.582Z,24.67
2023-05-30T21:18:34.503Z,24.00
2023-05-30T21:22:47.043Z,19.17
2023-05-30T21:26:59.728Z,18.08
2023-05-30T21:31:12.279Z,17.33
2023-05-30T21:35:24.963Z,21.20
2023-05-30T21:39:37.509Z,14.05
2023-05-30T21:43:50.009Z,17.83
2023-05-30T21:48:02.783Z,17.20
2023-05-30T21:52:15.361Z,16.35
2023-05-30T21:56:27.899Z,17.40
2023-05-30T22:00:42.339Z,10.68
2023-05-30T22:05:00.534Z,8.93
2023-05-30T22:09:13.029Z,10.60
2023-05-30T22:14:30.372Z,7.28
2023-05-30T22:18:43.097Z,8.20
2023-05-30T22:22:55.828Z,7.47
2023-05-30T22:27:11.266Z,9.38
2023-05-30T22:31:24.005Z,10.35
2023-05-30T22:35:36.724Z,7.97
2023-05-30T22:39:49.803Z,9.82
2023-05-30T22:44:08.455Z,7.75
2023-05-30T22:48:21.482Z,5.82
2023-05-30T22:52:34.052Z,10.35
2023-05-30T22:56:46.619Z,7.88
2023-05-30T23:00:59.328Z,11.73
2023-05-30T23:05:12.348Z,7.50
2023-05-30T23:09:25.120Z,7.15
2023-05-30T23:13:37.772Z,9.88
2023-05-30T23:17:50.419Z,8.07
2023-05-30T23:22:03.234Z,6.03
2023-05-30T23:26:15.907Z,6.95
2023-05-30T23:30:28.736Z,6.47
2023-05-30T23:34:41.675Z,7.15
2023-05-30T23:38:54.269Z,8.10
2023-05-30T23:43:06.771Z,7.60
2023-05-30T23:47:19.456Z,8.00
2023-05-30T23:51:32.530Z,6.95
2023-05-30T23:55:45.326Z,6.40
